sensor_id;sensor_type;location;lat;lon;timestamp;temperature;humidity
42019;DHT22;27703;51.980;5.848;2022-12-24T00:01:09;10.30;99.90
42019;DHT22;27703;51.980;5.848;2022-12-24T00:03:36;10.30;99.90
42019;DHT22;27703;51.980;5.848;2022-12-24T00:06:10;10.30;99.90
42019;DHT22;27703;51.980;5.848;2022-12-24T00:08:37;10.30;99.90
42019;DHT22;27703;51.980;5.848;2022-12-24T00:11:03;10.30;99.90
42019;DHT22;27703;51.980;5.848;2022-12-24T00:13:28;10.30;99.90
42019;DHT22;27703;51.980;5.848;2022-12-24T00:15:54;10.20;99.90
42019;DHT22;27703;51.980;5.848;2022-12-24T00:18:19;10.20;99.90
42019;DHT22;27703;51.980;5.848;2022-12-24T00:20:48;10.20;99.90
42019;DHT22;27703;51.980;5.848;2022-12-24T00:23:15;10.20;99.90
42019;DHT22;27703;51.980;5.848;2022-12-24T00:25:41;10.20;99.90
42019;DHT22;27703;51.980;5.848;2022-12-24T00:28:07;10.20;99.90
42019;DHT22;27703;51.980;5.848;2022-12-24T00:30:32;10.20;99.90
42019;DHT22;27703;51.980;5.848;2022-12-24T00:32:58;10.20;99.90
42019;DHT22;27703;51.980;5.848;2022-12-24T00:35:24;10.20;99.90
42019;DHT22;27703;51.980;5.848;2022-12-24T00:37:50;10.20;99.90
42019;DHT22;27703;51.980;5.848;2022-12-24T00:40:16;10.20;99.90
42019;DHT22;27703;51.980;5.848;2022-12-24T00:42:42;10.20;99.90
42019;DHT22;27703;51.980;5.848;2022-12-24T00:45:09;10.20;99.90
42019;DHT22;27703;51.980;5.848;2022-12-24T00:47:35;10.20;99.90
42019;DHT22;27703;51.980;5.848;2022-12-24T00:50:00;10.20;99.90
42019;DHT22;27703;51.980;5.848;2022-12-24T00:52:26;10.20;99.90
42019;DHT22;27703;51.980;5.848;2022-12-24T00:54:52;10.20;99.90
42019;DHT22;27703;51.980;5.848;2022-12-24T00:57:18;10.20;99.90
42019;DHT22;27703;51.980;5.848;2022-12-24T00:59:43;10.20;99.90
42019;DHT22;27703;51.980;5.848;2022-12-24T01:02:09;10.20;99.90
42019;DHT22;27703;51.980;5.848;2022-12-24T01:04:34;10.20;99.90
42019;DHT22;27703;51.980;5.848;2022-12-24T01:07:19;10.20;99.90
42019;DHT22;27703;51.980;5.848;2022-12-24T01:09:44;10.20;99.90
42019;DHT22;27703;51.980;5.848;2022-12-24T01:12:10;10.20;99.90
42019;DHT22;27703;51.980;5.848;2022-12-24T01:14:36;10.20;99.90
42019;DHT22;27703;51.980;5.848;2022-12-24T01:17:02;10.20;99.90
42019;DHT22;27703;51.980;5.848;2022-12-24T01:19:27;10.20;99.90
42019;DHT22;27703;51.980;5.848;2022-12-24T01:21:53;10.10;99.90
42019;DHT22;27703;51.980;5.848;2022-12-24T01:24:19;10.10;99.90
42019;DHT22;27703;51.980;5.848;2022-12-24T01:26:44;10.10;99.90
42019;DHT22;27703;51.980;5.848;2022-12-24T01:29:10;10.10;99.90
42019;DHT22;27703;51.980;5.848;2022-12-24T01:31:35;10.10;99.90
42019;DHT22;27703;51.980;5.848;2022-12-24T01:34:01;10.10;99.90
42019;DHT22;27703;51.980;5.848;2022-12-24T01:36:26;10.10;99.90
42019;DHT22;27703;51.980;5.848;2022-12-24T01:38:52;10.10;99.90
42019;DHT22;27703;51.980;5.848;2022-12-24T01:41:20;10.00;99.90
42019;DHT22;27703;51.980;5.848;2022-12-24T01:44:23;10.10;99.90
42019;DHT22;27703;51.980;5.848;2022-12-24T01:49:40;10.00;99.90
42019;DHT22;27703;51.980;5.848;2022-12-24T01:52:10;10.00;99.90
42019;DHT22;27703;51.980;5.848;2022-12-24T02:00:12;9.90;99.90
42019;DHT22;27703;51.980;5.848;2022-12-24T02:02:40;9.90;99.90
42019;DHT22;27703;51.980;5.848;2022-12-24T02:05:21;9.80;99.90
42019;DHT22;27703;51.980;5.848;2022-12-24T02:07:48;9.80;99.90
42019;DHT22;27703;51.980;5.848;2022-12-24T02:10:14;9.70;99.90
42019;DHT22;27703;51.980;5.848;2022-12-24T02:12:41;9.70;99.90
42019;DHT22;27703;51.980;5.848;2022-12-24T02:15:08;9.60;99.90
42019;DHT22;27703;51.980;5.848;2022-12-24T02:31:32;9.40;99.90
42019;DHT22;27703;51.980;5.848;2022-12-24T02:34:38;9.40;99.90
42019;DHT22;27703;51.980;5.848;2022-12-24T02:37:26;9.40;99.90
42019;DHT22;27703;51.980;5.848;2022-12-24T02:39:58;9.40;99.90
42019;DHT22;27703;51.980;5.848;2022-12-24T02:42:31;9.30;99.90
42019;DHT22;27703;51.980;5.848;2022-12-24T02:45:04;9.30;99.90
42019;DHT22;27703;51.980;5.848;2022-12-24T02:47:30;9.30;99.90
42019;DHT22;27703;51.980;5.848;2022-12-24T02:49:56;9.30;99.90
42019;DHT22;27703;51.980;5.848;2022-12-24T02:52:49;9.20;99.90
42019;DHT22;27703;51.980;5.848;2022-12-24T02:55:22;9.20;99.90
42019;DHT22;27703;51.980;5.848;2022-12-24T03:06:57;9.10;99.90
42019;DHT22;27703;51.980;5.848;2022-12-24T03:09:29;9.00;99.90
42019;DHT22;27703;51.980;5.848;2022-12-24T03:12:01;9.00;99.90
42019;DHT22;27703;51.980;5.848;2022-12-24T03:14:30;9.00;99.90
42019;DHT22;27703;51.980;5.848;2022-12-24T03:16:59;9.00;99.90
42019;DHT22;27703;51.980;5.848;2022-12-24T03:19:27;8.90;99.90
42019;DHT22;27703;51.980;5.848;2022-12-24T03:21:55;8.90;99.90
42019;DHT22;27703;51.980;5.848;2022-12-24T03:24:22;8.90;99.90
42019;DHT22;27703;51.980;5.848;2022-12-24T03:26:48;8.90;99.90
42019;DHT22;27703;51.980;5.848;2022-12-24T03:29:16;9.00;99.90
42019;DHT22;27703;51.980;5.848;2022-12-24T03:31:44;8.90;99.90
42019;DHT22;27703;51.980;5.848;2022-12-24T03:34:10;9.00;99.90
42019;DHT22;27703;51.980;5.848;2022-12-24T03:36:36;9.00;99.90
42019;DHT22;27703;51.980;5.848;2022-12-24T03:39:03;9.00;99.90
42019;DHT22;27703;51.980;5.848;2022-12-24T03:41:28;8.90;99.90
42019;DHT22;27703;51.980;5.848;2022-12-24T03:43:54;8.90;99.90
42019;DHT22;27703;51.980;5.848;2022-12-24T03:46:19;8.90;99.90
42019;DHT22;27703;51.980;5.848;2022-12-24T03:48:45;8.90;99.90
42019;DHT22;27703;51.980;5.848;2022-12-24T03:51:17;8.90;99.90
42019;DHT22;27703;51.980;5.848;2022-12-24T03:53:43;8.90;99.90
42019;DHT22;27703;51.980;5.848;2022-12-24T03:56:08;9.00;99.90
42019;DHT22;27703;51.980;5.848;2022-12-24T03:58:34;9.00;99.90
42019;DHT22;27703;51.980;5.848;2022-12-24T04:00:59;9.00;99.90
42019;DHT22;27703;51.980;5.848;2022-12-24T04:03:25;9.00;99.90
42019;DHT22;27703;51.980;5.848;2022-12-24T04:06:08;9.10;99.90
42019;DHT22;27703;51.980;5.848;2022-12-24T04:08:34;9.10;99.90
42019;DHT22;27703;51.980;5.848;2022-12-24T04:10:59;9.10;99.90
42019;DHT22;27703;51.980;5.848;2022-12-24T04:13:25;9.20;99.90
42019;DHT22;27703;51.980;5.848;2022-12-24T04:16:05;9.20;99.90
42019;DHT22;27703;51.980;5.848;2022-12-24T04:18:31;9.30;99.90
42019;DHT22;27703;51.980;5.848;2022-12-24T04:20:58;9.30;99.90
42019;DHT22;27703;51.980;5.848;2022-12-24T04:23:24;9.40;99.90
42019;DHT22;27703;51.980;5.848;2022-12-24T04:25:49;9.40;99.90
42019;DHT22;27703;51.980;5.848;2022-12-24T04:28:15;9.40;99.90
42019;DHT22;27703;51.980;5.848;2022-12-24T04:30:41;9.50;99.90
42019;DHT22;27703;51.980;5.848;2022-12-24T04:33:07;9.50;99.90
42019;DHT22;27703;51.980;5.848;2022-12-24T04:35:33;9.50;99.90
42019;DHT22;27703;51.980;5.848;2022-12-24T04:37:58;9.60;99.90
42019;DHT22;27703;51.980;5.848;2022-12-24T04:40:24;9.60;99.90
42019;DHT22;27703;51.980;5.848;2022-12-24T04:42:50;9.60;99.90
42019;DHT22;27703;51.980;5.848;2022-12-24T04:45:17;9.70;99.90
42019;DHT22;27703;51.980;5.848;2022-12-24T04:47:43;9.80;99.90
42019;DHT22;27703;51.980;5.848;2022-12-24T04:50:09;9.80;99.90
42019;DHT22;27703;51.980;5.848;2022-12-24T04:52:35;9.80;99.90
42019;DHT22;27703;51.980;5.848;2022-12-24T04:55:01;9.90;99.90
42019;DHT22;27703;51.980;5.848;2022-12-24T04:57:27;9.90;99.90
42019;DHT22;27703;51.980;5.848;2022-12-24T04:59:52;9.90;99.90
42019;DHT22;27703;51.980;5.848;2022-12-24T05:02:18;10.00;99.90
42019;DHT22;27703;51.980;5.848;2022-12-24T05:04:43;10.00;99.90
42019;DHT22;27703;51.980;5.848;2022-12-24T05:07:09;10.00;99.90
42019;DHT22;27703;51.980;5.848;2022-12-24T05:09:34;10.00;99.90
42019;DHT22;27703;51.980;5.848;2022-12-24T05:12:00;10.00;99.90
42019;DHT22;27703;51.980;5.848;2022-12-24T05:14:26;10.00;99.90
42019;DHT22;27703;51.980;5.848;2022-12-24T05:16:51;10.00;99.90
42019;DHT22;27703;51.980;5.848;2022-12-24T05:19:17;10.00;99.90
42019;DHT22;27703;51.980;5.848;2022-12-24T05:21:42;10.10;99.90
42019;DHT22;27703;51.980;5.848;2022-12-24T05:24:10;10.00;99.90
42019;DHT22;27703;51.980;5.848;2022-12-24T05:26:55;10.10;99.90
42019;DHT22;27703;51.980;5.848;2022-12-24T05:29:22;10.10;99.90
42019;DHT22;27703;51.980;5.848;2022-12-24T05:31:47;10.10;99.90
42019;DHT22;27703;51.980;5.848;2022-12-24T05:34:14;10.00;99.90
42019;DHT22;27703;51.980;5.848;2022-12-24T05:36:40;10.10;99.90
42019;DHT22;27703;51.980;5.848;2022-12-24T05:39:06;10.10;99.90
42019;DHT22;27703;51.980;5.848;2022-12-24T05:41:32;10.10;99.90
42019;DHT22;27703;51.980;5.848;2022-12-24T05:43:57;10.10;99.90
42019;DHT22;27703;51.980;5.848;2022-12-24T05:46:24;10.10;99.90
42019;DHT22;27703;51.980;5.848;2022-12-24T05:48:51;10.10;99.90
42019;DHT22;27703;51.980;5.848;2022-12-24T05:51:18;10.10;99.90
42019;DHT22;27703;51.980;5.848;2022-12-24T05:53:45;10.10;99.90
42019;DHT22;27703;51.980;5.848;2022-12-24T05:56:16;10.20;99.90
42019;DHT22;27703;51.980;5.848;2022-12-24T05:58:43;10.20;99.90
42019;DHT22;27703;51.980;5.848;2022-12-24T06:01:09;10.10;99.90
42019;DHT22;27703;51.980;5.848;2022-12-24T06:03:35;10.20;99.90
42019;DHT22;27703;51.980;5.848;2022-12-24T06:06:03;10.20;99.90
42019;DHT22;27703;51.980;5.848;2022-12-24T06:08:30;10.20;99.90
42019;DHT22;27703;51.980;5.848;2022-12-24T06:10:57;10.20;99.90
42019;DHT22;27703;51.980;5.848;2022-12-24T06:13:23;10.30;99.90
42019;DHT22;27703;51.980;5.848;2022-12-24T06:15:50;10.30;99.90
42019;DHT22;27703;51.980;5.848;2022-12-24T06:18:15;10.30;99.90
42019;DHT22;27703;51.980;5.848;2022-12-24T06:20:41;10.20;99.90
42019;DHT22;27703;51.980;5.848;2022-12-24T06:23:06;10.30;99.90
42019;DHT22;27703;51.980;5.848;2022-12-24T06:25:33;10.30;99.90
42019;DHT22;27703;51.980;5.848;2022-12-24T06:27:58;10.30;99.90
42019;DHT22;27703;51.980;5.848;2022-12-24T06:30:24;10.30;99.90
42019;DHT22;27703;51.980;5.848;2022-12-24T06:32:49;10.30;99.90
42019;DHT22;27703;51.980;5.848;2022-12-24T06:35:15;10.30;99.90
42019;DHT22;27703;51.980;5.848;2022-12-24T06:37:40;10.30;99.90
42019;DHT22;27703;51.980;5.848;2022-12-24T06:40:06;10.30;99.90
42019;DHT22;27703;51.980;5.848;2022-12-24T06:42:32;10.30;99.90
42019;DHT22;27703;51.980;5.848;2022-12-24T06:44:58;10.30;99.90
42019;DHT22;27703;51.980;5.848;2022-12-24T06:47:23;10.30;99.90
42019;DHT22;27703;51.980;5.848;2022-12-24T06:49:49;10.30;99.90
42019;DHT22;27703;51.980;5.848;2022-12-24T06:52:15;10.30;99.90
42019;DHT22;27703;51.980;5.848;2022-12-24T06:54:40;10.30;99.90
42019;DHT22;27703;51.980;5.848;2022-12-24T06:57:06;10.30;99.90
42019;DHT22;27703;51.980;5.848;2022-12-24T06:59:31;10.30;99.90
42019;DHT22;27703;51.980;5.848;2022-12-24T07:01:57;10.30;99.90
42019;DHT22;27703;51.980;5.848;2022-12-24T07:04:22;10.30;99.90
42019;DHT22;27703;51.980;5.848;2022-12-24T07:06:48;10.30;99.90
42019;DHT22;27703;51.980;5.848;2022-12-24T07:09:13;10.30;99.90
42019;DHT22;27703;51.980;5.848;2022-12-24T07:11:39;10.30;99.90
42019;DHT22;27703;51.980;5.848;2022-12-24T07:14:05;10.30;99.90
42019;DHT22;27703;51.980;5.848;2022-12-24T07:16:30;10.30;99.90
42019;DHT22;27703;51.980;5.848;2022-12-24T07:18:56;10.40;99.90
42019;DHT22;27703;51.980;5.848;2022-12-24T07:21:21;10.40;99.90
42019;DHT22;27703;51.980;5.848;2022-12-24T07:23:47;10.40;99.90
42019;DHT22;27703;51.980;5.848;2022-12-24T07:26:12;10.40;99.90
42019;DHT22;27703;51.980;5.848;2022-12-24T07:28:38;10.40;99.90
42019;DHT22;27703;51.980;5.848;2022-12-24T07:31:04;10.40;99.90
42019;DHT22;27703;51.980;5.848;2022-12-24T07:33:29;10.40;99.90
42019;DHT22;27703;51.980;5.848;2022-12-24T07:36:03;10.40;99.90
42019;DHT22;27703;51.980;5.848;2022-12-24T07:38:28;10.40;99.90
42019;DHT22;27703;51.980;5.848;2022-12-24T07:40:55;10.30;99.90
42019;DHT22;27703;51.980;5.848;2022-12-24T07:43:20;10.30;99.90
42019;DHT22;27703;51.980;5.848;2022-12-24T07:45:46;10.30;99.90
42019;DHT22;27703;51.980;5.848;2022-12-24T07:48:11;10.30;99.90
42019;DHT22;27703;51.980;5.848;2022-12-24T07:50:37;10.30;99.90
42019;DHT22;27703;51.980;5.848;2022-12-24T07:53:03;10.30;99.90
42019;DHT22;27703;51.980;5.848;2022-12-24T07:55:28;10.30;99.90
42019;DHT22;27703;51.980;5.848;2022-12-24T07:57:54;10.30;99.90
42019;DHT22;27703;51.980;5.848;2022-12-24T08:00:19;10.30;99.90
42019;DHT22;27703;51.980;5.848;2022-12-24T08:02:45;10.30;99.90
42019;DHT22;27703;51.980;5.848;2022-12-24T08:05:11;10.30;99.90
42019;DHT22;27703;51.980;5.848;2022-12-24T08:07:36;10.30;99.90
42019;DHT22;27703;51.980;5.848;2022-12-24T08:10:02;10.30;99.90
42019;DHT22;27703;51.980;5.848;2022-12-24T08:12:28;10.40;99.90
42019;DHT22;27703;51.980;5.848;2022-12-24T08:14:53;10.40;99.90
42019;DHT22;27703;51.980;5.848;2022-12-24T08:17:19;10.40;99.90
42019;DHT22;27703;51.980;5.848;2022-12-24T08:19:44;10.40;99.90
42019;DHT22;27703;51.980;5.848;2022-12-24T08:22:10;10.40;99.90
42019;DHT22;27703;51.980;5.848;2022-12-24T08:24:35;10.30;99.90
42019;DHT22;27703;51.980;5.848;2022-12-24T08:27:02;10.30;99.90
42019;DHT22;27703;51.980;5.848;2022-12-24T08:29:27;10.30;99.90
42019;DHT22;27703;51.980;5.848;2022-12-24T08:31:53;10.30;99.90
42019;DHT22;27703;51.980;5.848;2022-12-24T08:34:18;10.30;99.90
42019;DHT22;27703;51.980;5.848;2022-12-24T08:36:44;10.30;99.90
42019;DHT22;27703;51.980;5.848;2022-12-24T08:39:09;10.30;99.90
42019;DHT22;27703;51.980;5.848;2022-12-24T08:41:35;10.30;99.90
42019;DHT22;27703;51.980;5.848;2022-12-24T08:44:01;10.40;99.90
42019;DHT22;27703;51.980;5.848;2022-12-24T08:46:27;10.40;99.90
42019;DHT22;27703;51.980;5.848;2022-12-24T08:48:52;10.40;99.90
42019;DHT22;27703;51.980;5.848;2022-12-24T08:51:18;10.40;99.90
42019;DHT22;27703;51.980;5.848;2022-12-24T08:53:44;10.40;99.90
42019;DHT22;27703;51.980;5.848;2022-12-24T08:56:11;10.40;99.90
42019;DHT22;27703;51.980;5.848;2022-12-24T08:58:37;10.40;99.90
42019;DHT22;27703;51.980;5.848;2022-12-24T09:01:11;10.40;99.90
42019;DHT22;27703;51.980;5.848;2022-12-24T09:03:37;10.40;99.90
42019;DHT22;27703;51.980;5.848;2022-12-24T09:06:03;10.40;99.90
42019;DHT22;27703;51.980;5.848;2022-12-24T09:08:30;10.40;99.90
42019;DHT22;27703;51.980;5.848;2022-12-24T09:10:55;10.40;99.90
42019;DHT22;27703;51.980;5.848;2022-12-24T09:13:26;10.40;99.90
42019;DHT22;27703;51.980;5.848;2022-12-24T09:15:53;10.50;99.90
42019;DHT22;27703;51.980;5.848;2022-12-24T09:18:19;10.50;99.90
42019;DHT22;27703;51.980;5.848;2022-12-24T09:20:44;10.50;99.90
42019;DHT22;27703;51.980;5.848;2022-12-24T09:23:10;10.50;99.90
42019;DHT22;27703;51.980;5.848;2022-12-24T09:25:40;10.60;99.90
42019;DHT22;27703;51.980;5.848;2022-12-24T09:28:06;10.60;99.90
42019;DHT22;27703;51.980;5.848;2022-12-24T09:30:32;10.60;99.90
42019;DHT22;27703;51.980;5.848;2022-12-24T09:32:58;10.60;99.90
42019;DHT22;27703;51.980;5.848;2022-12-24T09:35:23;10.60;99.90
42019;DHT22;27703;51.980;5.848;2022-12-24T09:37:49;10.60;99.90
42019;DHT22;27703;51.980;5.848;2022-12-24T09:40:40;10.70;99.90
42019;DHT22;27703;51.980;5.848;2022-12-24T09:43:23;10.70;99.90
42019;DHT22;27703;51.980;5.848;2022-12-24T09:46:02;10.70;99.90
42019;DHT22;27703;51.980;5.848;2022-12-24T09:48:33;10.70;99.90
42019;DHT22;27703;51.980;5.848;2022-12-24T09:51:07;10.70;99.90
42019;DHT22;27703;51.980;5.848;2022-12-24T09:53:44;10.70;99.90
42019;DHT22;27703;51.980;5.848;2022-12-24T09:56:16;10.80;99.90
42019;DHT22;27703;51.980;5.848;2022-12-24T09:58:46;10.80;99.90
42019;DHT22;27703;51.980;5.848;2022-12-24T10:01:14;10.80;99.90
42019;DHT22;27703;51.980;5.848;2022-12-24T10:03:40;10.80;99.90
42019;DHT22;27703;51.980;5.848;2022-12-24T10:06:08;10.80;99.90
42019;DHT22;27703;51.980;5.848;2022-12-24T10:09:02;10.80;99.90
42019;DHT22;27703;51.980;5.848;2022-12-24T10:14:30;10.90;99.90
42019;DHT22;27703;51.980;5.848;2022-12-24T10:25:20;10.90;99.90
42019;DHT22;27703;51.980;5.848;2022-12-24T10:27:47;10.90;99.90
42019;DHT22;27703;51.980;5.848;2022-12-24T10:30:18;10.90;99.90
42019;DHT22;27703;51.980;5.848;2022-12-24T10:32:46;11.00;99.90
42019;DHT22;27703;51.980;5.848;2022-12-24T10:37:46;11.00;99.90
42019;DHT22;27703;51.980;5.848;2022-12-24T10:40:31;11.00;99.90
42019;DHT22;27703;51.980;5.848;2022-12-24T10:42:59;11.10;99.90
42019;DHT22;27703;51.980;5.848;2022-12-24T10:45:29;11.10;99.90
42019;DHT22;27703;51.980;5.848;2022-12-24T10:48:03;11.10;99.90
42019;DHT22;27703;51.980;5.848;2022-12-24T10:50:34;11.20;99.90
42019;DHT22;27703;51.980;5.848;2022-12-24T10:53:16;11.20;99.90
42019;DHT22;27703;51.980;5.848;2022-12-24T10:55:43;11.30;99.90
42019;DHT22;27703;51.980;5.848;2022-12-24T10:58:14;11.40;99.90
42019;DHT22;27703;51.980;5.848;2022-12-24T11:00:40;11.40;99.90
42019;DHT22;27703;51.980;5.848;2022-12-24T11:05:44;11.40;99.90
42019;DHT22;27703;51.980;5.848;2022-12-24T11:08:17;11.40;99.90
42019;DHT22;27703;51.980;5.848;2022-12-24T11:11:00;11.40;99.90
42019;DHT22;27703;51.980;5.848;2022-12-24T11:13:37;11.40;99.90
42019;DHT22;27703;51.980;5.848;2022-12-24T11:18:51;11.40;99.90
42019;DHT22;27703;51.980;5.848;2022-12-24T11:21:20;11.40;99.90
42019;DHT22;27703;51.980;5.848;2022-12-24T11:23:58;11.40;99.90
42019;DHT22;27703;51.980;5.848;2022-12-24T11:26:27;11.40;99.90
42019;DHT22;27703;51.980;5.848;2022-12-24T11:31:47;11.40;99.90
42019;DHT22;27703;51.980;5.848;2022-12-24T11:34:31;11.40;99.90
42019;DHT22;27703;51.980;5.848;2022-12-24T11:37:22;11.50;99.90
42019;DHT22;27703;51.980;5.848;2022-12-24T11:39:57;11.50;99.90
42019;DHT22;27703;51.980;5.848;2022-12-24T11:42:34;11.40;99.90
42019;DHT22;27703;51.980;5.848;2022-12-24T11:45:03;11.40;99.90
42019;DHT22;27703;51.980;5.848;2022-12-24T11:47:35;11.40;99.90
42019;DHT22;27703;51.980;5.848;2022-12-24T11:50:22;11.40;99.90
42019;DHT22;27703;51.980;5.848;2022-12-24T11:53:11;11.40;99.90
42019;DHT22;27703;51.980;5.848;2022-12-24T11:55:55;11.40;99.90
42019;DHT22;27703;51.980;5.848;2022-12-24T12:01:45;11.40;99.90
42019;DHT22;27703;51.980;5.848;2022-12-24T12:03:54;11.40;99.90
42019;DHT22;27703;51.980;5.848;2022-12-24T12:06:30;11.40;99.90
42019;DHT22;27703;51.980;5.848;2022-12-24T12:09:06;11.50;99.90
42019;DHT22;27703;51.980;5.848;2022-12-24T12:11:37;11.60;99.90
42019;DHT22;27703;51.980;5.848;2022-12-24T12:14:04;11.60;99.90
42019;DHT22;27703;51.980;5.848;2022-12-24T12:16:46;11.50;99.90
42019;DHT22;27703;51.980;5.848;2022-12-24T12:19:25;11.50;99.90
42019;DHT22;27703;51.980;5.848;2022-12-24T12:21:52;11.40;99.90
42019;DHT22;27703;51.980;5.848;2022-12-24T12:24:25;11.40;99.90
42019;DHT22;27703;51.980;5.848;2022-12-24T12:27:06;11.40;99.90
42019;DHT22;27703;51.980;5.848;2022-12-24T12:29:41;11.30;99.90
42019;DHT22;27703;51.980;5.848;2022-12-24T12:35:14;11.30;99.90
42019;DHT22;27703;51.980;5.848;2022-12-24T12:37:45;11.30;99.90
42019;DHT22;27703;51.980;5.848;2022-12-24T12:40:16;11.20;99.90
42019;DHT22;27703;51.980;5.848;2022-12-24T12:42:52;11.20;99.90
42019;DHT22;27703;51.980;5.848;2022-12-24T12:45:29;11.20;99.90
42019;DHT22;27703;51.980;5.848;2022-12-24T12:50:35;11.30;99.90
42019;DHT22;27703;51.980;5.848;2022-12-24T12:53:35;11.30;99.90
42019;DHT22;27703;51.980;5.848;2022-12-24T12:56:27;11.30;99.90
42019;DHT22;27703;51.980;5.848;2022-12-24T12:59:11;11.30;99.90
42019;DHT22;27703;51.980;5.848;2022-12-24T13:04:42;11.20;99.90
42019;DHT22;27703;51.980;5.848;2022-12-24T13:07:43;11.30;99.90
42019;DHT22;27703;51.980;5.848;2022-12-24T13:21:46;12.10;99.90
42019;DHT22;27703;51.980;5.848;2022-12-24T13:24:27;12.00;99.90
42019;DHT22;27703;51.980;5.848;2022-12-24T13:35:02;12.30;99.90
42019;DHT22;27703;51.980;5.848;2022-12-24T13:40:12;12.10;99.90
42019;DHT22;27703;51.980;5.848;2022-12-24T13:48:00;11.50;99.90
42019;DHT22;27703;51.980;5.848;2022-12-24T13:50:50;11.50;99.90
42019;DHT22;27703;51.980;5.848;2022-12-24T13:53:55;11.30;99.90
42019;DHT22;27703;51.980;5.848;2022-12-24T13:58:46;11.20;99.90
42019;DHT22;27703;51.980;5.848;2022-12-24T14:01:15;11.20;99.90
42019;DHT22;27703;51.980;5.848;2022-12-24T14:03:44;11.20;99.90
42019;DHT22;27703;51.980;5.848;2022-12-24T14:06:29;11.20;99.90
42019;DHT22;27703;51.980;5.848;2022-12-24T14:09:04;11.20;99.90
42019;DHT22;27703;51.980;5.848;2022-12-24T14:17:21;11.30;99.90
42019;DHT22;27703;51.980;5.848;2022-12-24T14:19:54;11.30;99.90
42019;DHT22;27703;51.980;5.848;2022-12-24T14:22:29;11.20;99.90
42019;DHT22;27703;51.980;5.848;2022-12-24T14:25:20;11.10;99.90
42019;DHT22;27703;51.980;5.848;2022-12-24T14:27:57;11.10;99.90
42019;DHT22;27703;51.980;5.848;2022-12-24T14:30:26;11.00;99.90
42019;DHT22;27703;51.980;5.848;2022-12-24T14:32:52;10.90;99.90
42019;DHT22;27703;51.980;5.848;2022-12-24T14:35:22;10.90;99.90
42019;DHT22;27703;51.980;5.848;2022-12-24T14:38:02;10.90;99.90
42019;DHT22;27703;51.980;5.848;2022-12-24T14:40:30;11.00;99.90
42019;DHT22;27703;51.980;5.848;2022-12-24T14:42:59;10.90;99.90
42019;DHT22;27703;51.980;5.848;2022-12-24T14:56:13;10.80;99.90
42019;DHT22;27703;51.980;5.848;2022-12-24T14:58:39;10.70;99.90
42019;DHT22;27703;51.980;5.848;2022-12-24T15:01:28;10.60;99.90
42019;DHT22;27703;51.980;5.848;2022-12-24T15:06:42;10.50;99.90
42019;DHT22;27703;51.980;5.848;2022-12-24T15:09:23;10.40;99.90
42019;DHT22;27703;51.980;5.848;2022-12-24T15:11:51;10.40;99.90
42019;DHT22;27703;51.980;5.848;2022-12-24T15:14:19;10.30;99.90
42019;DHT22;27703;51.980;5.848;2022-12-24T15:17:04;10.30;99.90
42019;DHT22;27703;51.980;5.848;2022-12-24T15:19:36;10.20;99.90
42019;DHT22;27703;51.980;5.848;2022-12-24T15:22:06;10.10;99.90
42019;DHT22;27703;51.980;5.848;2022-12-24T15:24:41;10.10;99.90
42019;DHT22;27703;51.980;5.848;2022-12-24T15:27:19;10.10;99.90
42019;DHT22;27703;51.980;5.848;2022-12-24T15:29:47;10.00;99.90
42019;DHT22;27703;51.980;5.848;2022-12-24T15:32:15;10.00;99.90
42019;DHT22;27703;51.980;5.848;2022-12-24T15:34:49;10.00;99.90
42019;DHT22;27703;51.980;5.848;2022-12-24T15:37:27;10.00;99.90
42019;DHT22;27703;51.980;5.848;2022-12-24T15:39:55;10.00;99.90
42019;DHT22;27703;51.980;5.848;2022-12-24T15:42:22;10.00;99.90
42019;DHT22;27703;51.980;5.848;2022-12-24T15:47:31;10.00;99.90
42019;DHT22;27703;51.980;5.848;2022-12-24T15:50:14;9.90;99.90
42019;DHT22;27703;51.980;5.848;2022-12-24T15:52:41;10.00;99.90
42019;DHT22;27703;51.980;5.848;2022-12-24T15:55:32;9.90;99.90
42019;DHT22;27703;51.980;5.848;2022-12-24T15:57:58;9.90;99.90
42019;DHT22;27703;51.980;5.848;2022-12-24T16:00:26;9.80;99.90
42019;DHT22;27703;51.980;5.848;2022-12-24T16:03:11;9.70;99.90
42019;DHT22;27703;51.980;5.848;2022-12-24T16:05:42;9.70;99.90
42019;DHT22;27703;51.980;5.848;2022-12-24T16:10:46;9.60;99.90
42019;DHT22;27703;51.980;5.848;2022-12-24T16:13:17;9.60;99.90
42019;DHT22;27703;51.980;5.848;2022-12-24T16:15:55;9.60;99.90
42019;DHT22;27703;51.980;5.848;2022-12-24T16:18:30;9.50;99.90
42019;DHT22;27703;51.980;5.848;2022-12-24T16:20:56;9.50;99.90
42019;DHT22;27703;51.980;5.848;2022-12-24T16:23:24;9.50;99.90
42019;DHT22;27703;51.980;5.848;2022-12-24T16:25:51;9.50;99.90
42019;DHT22;27703;51.980;5.848;2022-12-24T16:28:19;9.40;99.90
42019;DHT22;27703;51.980;5.848;2022-12-24T16:30:46;9.40;99.90
42019;DHT22;27703;51.980;5.848;2022-12-24T16:33:17;9.40;99.90
42019;DHT22;27703;51.980;5.848;2022-12-24T16:35:44;9.40;99.90
42019;DHT22;27703;51.980;5.848;2022-12-24T16:38:11;9.30;99.90
42019;DHT22;27703;51.980;5.848;2022-12-24T16:40:39;9.30;99.90
42019;DHT22;27703;51.980;5.848;2022-12-24T16:43:05;9.30;99.90
42019;DHT22;27703;51.980;5.848;2022-12-24T16:45:49;9.30;99.90
42019;DHT22;27703;51.980;5.848;2022-12-24T16:48:23;9.20;99.90
42019;DHT22;27703;51.980;5.848;2022-12-24T16:50:50;9.20;99.90
42019;DHT22;27703;51.980;5.848;2022-12-24T16:53:16;9.20;99.90
42019;DHT22;27703;51.980;5.848;2022-12-24T16:55:42;9.20;99.90
42019;DHT22;27703;51.980;5.848;2022-12-24T16:58:12;9.10;99.90
42019;DHT22;27703;51.980;5.848;2022-12-24T17:00:38;9.10;99.90
42019;DHT22;27703;51.980;5.848;2022-12-24T17:03:04;9.00;99.90
42019;DHT22;27703;51.980;5.848;2022-12-24T17:05:30;8.90;99.90
42019;DHT22;27703;51.980;5.848;2022-12-24T17:08:00;8.90;99.90
42019;DHT22;27703;51.980;5.848;2022-12-24T17:10:26;8.80;99.90
42019;DHT22;27703;51.980;5.848;2022-12-24T17:12:53;8.80;99.90
42019;DHT22;27703;51.980;5.848;2022-12-24T17:15:18;8.80;99.90
42019;DHT22;27703;51.980;5.848;2022-12-24T17:17:44;8.70;99.90
42019;DHT22;27703;51.980;5.848;2022-12-24T17:20:10;8.70;99.90
42019;DHT22;27703;51.980;5.848;2022-12-24T17:22:36;8.70;99.90
42019;DHT22;27703;51.980;5.848;2022-12-24T17:25:02;8.70;99.90
42019;DHT22;27703;51.980;5.848;2022-12-24T17:27:27;8.70;99.90
42019;DHT22;27703;51.980;5.848;2022-12-24T17:29:53;8.60;99.90
42019;DHT22;27703;51.980;5.848;2022-12-24T17:32:19;8.60;99.90
42019;DHT22;27703;51.980;5.848;2022-12-24T17:34:44;8.50;99.90
42019;DHT22;27703;51.980;5.848;2022-12-24T17:37:10;8.50;99.90
42019;DHT22;27703;51.980;5.848;2022-12-24T17:39:36;8.40;99.90
42019;DHT22;27703;51.980;5.848;2022-12-24T17:42:02;8.40;99.90
42019;DHT22;27703;51.980;5.848;2022-12-24T17:44:27;8.40;99.90
42019;DHT22;27703;51.980;5.848;2022-12-24T17:46:53;8.40;99.90
42019;DHT22;27703;51.980;5.848;2022-12-24T17:49:19;8.30;99.90